sensor_id;sensor_type;location;lat;lon;timestamp;pressure;altitude;pressure_sealevel;temperature;humidity
8581;BME280;4328;48.622;9.230;2023-05-07T12:40:07;64081.09;;;-143.67;100.00
8581;BME280;4328;48.622;9.230;2023-05-07T12:42:35;64081.09;;;-143.67;100.00
8581;BME280;4328;48.622;9.230;2023-05-07T12:45:08;64081.09;;;-143.67;100.00
8581;BME280;4328;48.622;9.230;2023-05-07T12:47:35;64081.09;;;-143.67;100.00
8581;BME280;4328;48.622;9.230;2023-05-07T12:50:02;64081.09;;;-143.67;100.00
8581;BME280;4328;48.622;9.230;2023-05-07T12:52:28;64081.09;;;-143.67;100.00
8581;BME280;4328;48.622;9.230;2023-05-07T12:54:56;64081.09;;;-143.67;100.00
8581;BME280;4328;48.622;9.230;2023-05-07T12:57:25;64081.09;;;-143.67;100.00
8581;BME280;4328;48.622;9.230;2023-05-07T12:59:57;64081.09;;;-143.67;100.00
8581;BME280;4328;48.622;9.230;2023-05-07T13:02:32;64081.09;;;-143.67;100.00
8581;BME280;4328;48.622;9.230;2023-05-07T13:04:58;64081.09;;;-143.67;100.00
8581;BME280;4328;48.622;9.230;2023-05-07T13:07:25;64081.09;;;-143.67;100.00
8581;BME280;4328;48.622;9.230;2023-05-07T13:09:52;64081.09;;;-143.67;100.00
8581;BME280;4328;48.622;9.230;2023-05-07T13:12:18;64081.09;;;-143.67;100.00
8581;BME280;4328;48.622;9.230;2023-05-07T13:14:47;64081.09;;;-143.67;100.00
8581;BME280;4328;48.622;9.230;2023-05-07T13:17:13;64081.09;;;-143.67;100.00
8581;BME280;4328;48.622;9.230;2023-05-07T13:19:40;64081.09;;;-143.67;100.00
8581;BME280;4328;48.622;9.230;2023-05-07T13:22:06;64081.09;;;-143.67;100.00
8581;BME280;4328;48.622;9.230;2023-05-07T13:24:33;64081.09;;;-143.67;100.00
8581;BME280;4328;48.622;9.230;2023-05-07T13:27:00;64081.09;;;-143.67;100.00
8581;BME280;4328;48.622;9.230;2023-05-07T13:29:26;64081.09;;;-143.67;100.00
8581;BME280;4328;48.622;9.230;2023-05-07T13:31:56;64081.09;;;-143.67;100.00
8581;BME280;4328;48.622;9.230;2023-05-07T13:34:25;64081.09;;;-143.67;100.00
8581;BME280;4328;48.622;9.230;2023-05-07T13:36:52;64081.09;;;-143.67;100.00
8581;BME280;4328;48.622;9.230;2023-05-07T13:39:19;64081.09;;;-143.67;100.00
8581;BME280;4328;48.622;9.230;2023-05-07T13:41:45;64081.09;;;-143.67;100.00
8581;BME280;4328;48.622;9.230;2023-05-07T13:44:12;64081.09;;;-143.67;100.00
8581;BME280;4328;48.622;9.230;2023-05-07T13:46:39;64081.09;;;-143.67;100.00
8581;BME280;4328;48.622;9.230;2023-05-07T13:49:07;64081.09;;;-143.67;100.00
8581;BME280;4328;48.622;9.230;2023-05-07T13:51:36;64081.09;;;-143.67;100.00
8581;BME280;4328;48.622;9.230;2023-05-07T13:54:03;64081.09;;;-143.67;100.00
8581;BME280;4328;48.622;9.230;2023-05-07T13:56:30;64081.09;;;-143.67;100.00
8581;BME280;4328;48.622;9.230;2023-05-07T13:58:57;64081.09;;;-143.67;100.00
8581;BME280;4328;48.622;9.230;2023-05-07T14:01:24;64081.09;;;-143.67;100.00
8581;BME280;4328;48.622;9.230;2023-05-07T14:03:51;64081.09;;;-143.67;100.00
8581;BME280;4328;48.622;9.230;2023-05-07T14:06:19;64081.09;;;-143.67;100.00
8581;BME280;4328;48.622;9.230;2023-05-07T14:08:45;64081.09;;;-143.67;100.00
8581;BME280;4328;48.622;9.230;2023-05-07T14:11:12;64081.09;;;-143.67;100.00
8581;BME280;4328;48.622;9.230;2023-05-07T14:13:39;64081.09;;;-143.67;100.00
8581;BME280;4328;48.622;9.230;2023-05-07T14:16:09;64081.09;;;-143.67;100.00
8581;BME280;4328;48.622;9.230;2023-05-07T14:18:41;64081.09;;;-143.67;100.00
8581;BME280;4328;48.622;9.230;2023-05-07T14:21:13;64081.09;;;-143.67;100.00
8581;BME280;4328;48.622;9.230;2023-05-07T14:23:45;64081.09;;;-143.67;100.00
8581;BME280;4328;48.622;9.230;2023-05-07T14:26:12;64081.09;;;-143.67;100.00
8581;BME280;4328;48.622;9.230;2023-05-07T14:28:39;64081.09;;;-143.67;100.00
8581;BME280;4328;48.622;9.230;2023-05-07T14:31:11;64081.09;;;-143.67;100.00
8581;BME280;4328;48.622;9.230;2023-05-07T14:33:38;97839.72;;;24.56;43.32
8581;BME280;4328;48.622;9.230;2023-05-07T14:36:04;97973.75;;;16.53;100.00
8581;BME280;4328;48.622;9.230;2023-05-07T14:38:31;97959.78;;;16.61;100.00
8581;BME280;4328;48.622;9.230;2023-05-07T14:41:00;97951.72;;;16.67;100.00
8581;BME280;4328;48.622;9.230;2023-05-07T14:43:26;97940.78;;;16.67;100.00
8581;BME280;4328;48.622;9.230;2023-05-07T14:45:53;97936.75;;;16.69;100.00
8581;BME280;4328;48.622;9.230;2023-05-07T14:48:20;97921.78;;;16.72;100.00
8581;BME280;4328;48.622;9.230;2023-05-07T14:50:46;97914.75;;;16.76;99.74
8581;BME280;4328;48.622;9.230;2023-05-07T14:53:13;97883.78;;;16.64;100.00
8581;BME280;4328;48.622;9.230;2023-05-07T14:55:40;97909.88;;;16.78;98.22
8581;BME280;4328;48.622;9.230;2023-05-07T14:58:08;97909.88;;;16.78;97.72
8581;BME280;4328;48.622;9.230;2023-05-07T15:00:34;97909.41;;;16.81;97.73
8581;BME280;4328;48.622;9.230;2023-05-07T15:03:05;97921.59;;;16.85;96.95
8581;BME280;4328;48.622;9.230;2023-05-07T15:05:34;97922.31;;;16.92;98.75
8581;BME280;4328;48.622;9.230;2023-05-07T15:08:01;97917.59;;;16.99;99.35
8581;BME280;4328;48.622;9.230;2023-05-07T15:10:28;97900.47;;;17.15;99.73
8581;BME280;4328;48.622;9.230;2023-05-07T15:12:55;97899.44;;;17.28;99.37
8581;BME280;4328;48.622;9.230;2023-05-07T15:15:23;97916.72;;;17.28;95.89
8581;BME280;4328;48.622;9.230;2023-05-07T15:17:50;97921.69;;;17.20;94.58
8581;BME280;4328;48.622;9.230;2023-05-07T15:20:16;97932.28;;;17.16;93.91
8581;BME280;4328;48.622;9.230;2023-05-07T15:22:43;97929.09;;;17.19;93.63
8581;BME280;4328;48.622;9.230;2023-05-07T15:25:11;97932.47;;;17.33;91.96
8581;BME280;4328;48.622;9.230;2023-05-07T15:27:37;97925.66;;;17.47;91.88
8581;BME280;4328;48.622;9.230;2023-05-07T15:30:05;97930.09;;;17.60;92.48
8581;BME280;4328;48.622;9.230;2023-05-07T15:32:33;97916.91;;;17.68;91.11
8581;BME280;4328;48.622;9.230;2023-05-07T15:35:00;97927.28;;;17.78;86.98
8581;BME280;4328;48.622;9.230;2023-05-07T15:37:27;97922.88;;;17.89;85.79
8581;BME280;4328;48.622;9.230;2023-05-07T15:39:54;97930.25;;;18.12;87.81
8581;BME280;4328;48.622;9.230;2023-05-07T15:42:21;97922.47;;;18.32;88.37
8581;BME280;4328;48.622;9.230;2023-05-07T15:44:47;97915.00;;;18.56;90.04
8581;BME280;4328;48.622;9.230;2023-05-07T15:47:14;97923.94;;;18.74;89.49
8581;BME280;4328;48.622;9.230;2023-05-07T15:49:42;97931.78;;;18.83;86.80
8581;BME280;4328;48.622;9.230;2023-05-07T15:52:09;97919.59;;;18.79;83.82
8581;BME280;4328;48.622;9.230;2023-05-07T15:54:38;97925.63;;;18.75;84.54
8581;BME280;4328;48.622;9.230;2023-05-07T15:57:05;97927.97;;;18.84;84.42
8581;BME280;4328;48.622;9.230;2023-05-07T15:59:32;97926.41;;;18.88;83.06
8581;BME280;4328;48.622;9.230;2023-05-07T16:02:00;97936.16;;;18.95;80.45
8581;BME280;4328;48.622;9.230;2023-05-07T16:04:27;97942.25;;;18.97;81.05
8581;BME280;4328;48.622;9.230;2023-05-07T16:06:55;97939.94;;;19.06;82.11
8581;BME280;4328;48.622;9.230;2023-05-07T16:09:22;97936.94;;;19.07;81.79
8581;BME280;4328;48.622;9.230;2023-05-07T16:11:49;97942.03;;;19.16;81.81
8581;BME280;4328;48.622;9.230;2023-05-07T16:14:16;97931.28;;;19.14;82.55
8581;BME280;4328;48.622;9.230;2023-05-07T16:16:43;97953.97;;;19.21;82.00
8581;BME280;4328;48.622;9.230;2023-05-07T16:19:10;97949.06;;;19.23;82.72
8581;BME280;4328;48.622;9.230;2023-05-07T16:21:36;97911.91;;;18.92;83.21
8581;BME280;4328;48.622;9.230;2023-05-07T16:24:05;97937.06;;;19.01;83.60
8581;BME280;4328;48.622;9.230;2023-05-07T16:26:32;97963.00;;;19.05;84.06
8581;BME280;4328;48.622;9.230;2023-05-07T16:29:03;97954.38;;;19.01;84.56
8581;BME280;4328;48.622;9.230;2023-05-07T16:31:30;97963.88;;;18.94;84.73
8581;BME280;4328;48.622;9.230;2023-05-07T16:33:56;97966.63;;;18.94;85.22
8581;BME280;4328;48.622;9.230;2023-05-07T16:36:26;97968.53;;;18.93;85.82
8581;BME280;4328;48.622;9.230;2023-05-07T16:38:53;97970.09;;;18.89;86.32
8581;BME280;4328;48.622;9.230;2023-05-07T16:41:21;97970.91;;;18.90;86.11
8581;BME280;4328;48.622;9.230;2023-05-07T16:43:48;97972.16;;;18.82;85.77
8581;BME280;4328;48.622;9.230;2023-05-07T16:46:15;97960.59;;;18.68;85.53
8581;BME280;4328;48.622;9.230;2023-05-07T16:48:42;97971.94;;;18.72;85.34
8581;BME280;4328;48.622;9.230;2023-05-07T16:51:09;97985.44;;;18.73;85.16
8581;BME280;4328;48.622;9.230;2023-05-07T16:53:36;97983.06;;;18.65;85.23
8581;BME280;4328;48.622;9.230;2023-05-07T16:56:04;97975.56;;;18.49;85.69
8581;BME280;4328;48.622;9.230;2023-05-07T16:58:32;98002.03;;;18.55;86.19
8581;BME280;4328;48.622;9.230;2023-05-07T17:00:59;97992.38;;;18.41;85.41
8581;BME280;4328;48.622;9.230;2023-05-07T17:03:27;97998.59;;;18.36;86.32
8581;BME280;4328;48.622;9.230;2023-05-07T17:05:54;98002.06;;;18.32;87.15
8581;BME280;4328;48.622;9.230;2023-05-07T17:08:20;97990.97;;;18.27;88.06
8581;BME280;4328;48.622;9.230;2023-05-07T17:10:47;98002.28;;;18.19;88.30
8581;BME280;4328;48.622;9.230;2023-05-07T17:13:14;97994.19;;;18.12;89.17
8581;BME280;4328;48.622;9.230;2023-05-07T17:15:42;98002.28;;;18.07;89.88
8581;BME280;4328;48.622;9.230;2023-05-07T17:18:10;97997.41;;;17.97;90.60
8581;BME280;4328;48.622;9.230;2023-05-07T17:20:37;98007.91;;;18.00;91.46
8581;BME280;4328;48.622;9.230;2023-05-07T17:23:04;98007.78;;;17.95;91.40
8581;BME280;4328;48.622;9.230;2023-05-07T17:25:31;98007.31;;;17.87;91.60
8581;BME280;4328;48.622;9.230;2023-05-07T17:27:58;98012.91;;;17.80;91.86
8581;BME280;4328;48.622;9.230;2023-05-07T17:30:24;98018.84;;;17.77;92.54
8581;BME280;4328;48.622;9.230;2023-05-07T17:32:52;98024.44;;;17.71;93.68
8581;BME280;4328;48.622;9.230;2023-05-07T17:35:21;98026.66;;;17.62;94.31
8581;BME280;4328;48.622;9.230;2023-05-07T17:37:47;98027.13;;;17.59;94.53
8581;BME280;4328;48.622;9.230;2023-05-07T17:40:17;98029.75;;;17.54;95.60
8581;BME280;4328;48.622;9.230;2023-05-07T17:42:45;98025.66;;;17.45;95.28
8581;BME280;4328;48.622;9.230;2023-05-07T17:45:11;98034.69;;;17.33;94.27
8581;BME280;4328;48.622;9.230;2023-05-07T17:47:38;98040.00;;;17.28;94.74
8581;BME280;4328;48.622;9.230;2023-05-07T17:50:08;98033.53;;;17.23;95.96
8581;BME280;4328;48.622;9.230;2023-05-07T17:52:35;98049.91;;;17.29;97.32
8581;BME280;4328;48.622;9.230;2023-05-07T17:55:03;98044.28;;;17.24;97.59
8581;BME280;4328;48.622;9.230;2023-05-07T17:57:29;98045.84;;;17.20;98.10
8581;BME280;4328;48.622;9.230;2023-05-07T17:59:59;98055.56;;;17.16;98.25
8581;BME280;4328;48.622;9.230;2023-05-07T18:02:26;98059.38;;;17.15;98.04
8581;BME280;4328;48.622;9.230;2023-05-07T18:04:53;98057.34;;;17.11;97.65
8581;BME280;4328;48.622;9.230;2023-05-07T18:07:21;98050.88;;;17.05;97.67
8581;BME280;4328;48.622;9.230;2023-05-07T18:09:47;98058.47;;;17.03;98.98
8581;BME280;4328;48.622;9.230;2023-05-07T18:12:14;98058.94;;;17.00;99.72
8581;BME280;4328;48.622;9.230;2023-05-07T18:14:41;98059.88;;;16.94;99.20
8581;BME280;4328;48.622;9.230;2023-05-07T18:17:08;98056.97;;;16.89;100.00
8581;BME280;4328;48.622;9.230;2023-05-07T18:19:35;98076.13;;;16.89;100.00
8581;BME280;4328;48.622;9.230;2023-05-07T18:22:02;98074.53;;;16.81;100.00
8581;BME280;4328;48.622;9.230;2023-05-07T18:24:30;98084.13;;;16.72;100.00
8581;BME280;4328;48.622;9.230;2023-05-07T18:26:57;98086.13;;;16.58;100.00
8581;BME280;4328;48.622;9.230;2023-05-07T18:29:24;98088.78;;;16.47;100.00
8581;BME280;4328;48.622;9.230;2023-05-07T18:31:50;98093.25;;;16.41;100.00
8581;BME280;4328;48.622;9.230;2023-05-07T18:34:17;98095.63;;;16.38;100.00
8581;BME280;4328;48.622;9.230;2023-05-07T18:36:45;98102.38;;;16.35;100.00
8581;BME280;4328;48.622;9.230;2023-05-07T18:39:12;98099.84;;;16.34;100.00
8581;BME280;4328;48.622;9.230;2023-05-07T18:41:40;98097.97;;;16.34;100.00
8581;BME280;4328;48.622;9.230;2023-05-07T18:44:09;98094.47;;;16.27;100.00
8581;BME280;4328;48.622;9.230;2023-05-07T18:46:36;98107.31;;;16.27;100.00
8581;BME280;4328;48.622;9.230;2023-05-07T18:49:03;98098.69;;;16.23;100.00
8581;BME280;4328;48.622;9.230;2023-05-07T18:51:30;98103.31;;;16.22;100.00
8581;BME280;4328;48.622;9.230;2023-05-07T18:53:57;98111.75;;;16.21;100.00
8581;BME280;4328;48.622;9.230;2023-05-07T18:56:26;98106.97;;;16.16;100.00
8581;BME280;4328;48.622;9.230;2023-05-07T18:58:54;98095.13;;;15.98;100.00
8581;BME280;4328;48.622;9.230;2023-05-07T19:01:21;98111.53;;;15.98;100.00
8581;BME280;4328;48.622;9.230;2023-05-07T19:03:48;98115.16;;;15.92;100.00
8581;BME280;4328;48.622;9.230;2023-05-07T19:06:15;98121.28;;;15.87;100.00
8581;BME280;4328;48.622;9.230;2023-05-07T19:08:41;98119.81;;;15.84;100.00
8581;BME280;4328;48.622;9.230;2023-05-07T19:11:08;98117.72;;;15.86;100.00
8581;BME280;4328;48.622;9.230;2023-05-07T19:13:35;98119.56;;;15.93;100.00
8581;BME280;4328;48.622;9.230;2023-05-07T19:16:03;98126.25;;;15.97;100.00
8581;BME280;4328;48.622;9.230;2023-05-07T19:18:34;98129.22;;;15.95;100.00
8581;BME280;4328;48.622;9.230;2023-05-07T19:21:01;98125.81;;;16.00;100.00
8581;BME280;4328;48.622;9.230;2023-05-07T19:23:27;98139.72;;;15.98;100.00
8581;BME280;4328;48.622;9.230;2023-05-07T19:25:54;98146.22;;;15.97;100.00
8581;BME280;4328;48.622;9.230;2023-05-07T19:28:21;98148.97;;;15.97;100.00
8581;BME280;4328;48.622;9.230;2023-05-07T19:30:47;98130.41;;;15.74;100.00
8581;BME280;4328;48.622;9.230;2023-05-07T19:33:18;98165.88;;;15.87;100.00
8581;BME280;4328;48.622;9.230;2023-05-07T19:35:44;98148.28;;;15.77;100.00
8581;BME280;4328;48.622;9.230;2023-05-07T19:38:11;98164.19;;;15.86;100.00
8581;BME280;4328;48.622;9.230;2023-05-07T19:40:37;98175.03;;;16.00;100.00
8581;BME280;4328;48.622;9.230;2023-05-07T19:43:04;98181.75;;;16.04;100.00
8581;BME280;4328;48.622;9.230;2023-05-07T19:45:31;98185.16;;;15.99;100.00
8581;BME280;4328;48.622;9.230;2023-05-07T19:47:58;98187.94;;;15.93;100.00
8581;BME280;4328;48.622;9.230;2023-05-07T19:50:26;98199.03;;;15.98;100.00
8581;BME280;4328;48.622;9.230;2023-05-07T19:52:52;98191.47;;;15.93;100.00
8581;BME280;4328;48.622;9.230;2023-05-07T19:55:20;98181.66;;;15.85;100.00
8581;BME280;4328;48.622;9.230;2023-05-07T19:57:47;98200.97;;;15.91;100.00
8581;BME280;4328;48.622;9.230;2023-05-07T20:00:14;98196.59;;;15.83;100.00
8581;BME280;4328;48.622;9.230;2023-05-07T20:02:41;98197.25;;;15.78;100.00
8581;BME280;4328;48.622;9.230;2023-05-07T20:05:08;98200.38;;;15.82;100.00
8581;BME280;4328;48.622;9.230;2023-05-07T20:07:39;98190.91;;;15.84;100.00
8581;BME280;4328;48.622;9.230;2023-05-07T20:10:07;98199.09;;;15.91;100.00
8581;BME280;4328;48.622;9.230;2023-05-07T20:12:34;98205.41;;;15.92;100.00
8581;BME280;4328;48.622;9.230;2023-05-07T20:15:00;98203.38;;;15.80;100.00
8581;BME280;4328;48.622;9.230;2023-05-07T20:17:27;98205.28;;;15.73;100.00
8581;BME280;4328;48.622;9.230;2023-05-07T20:19:54;98204.22;;;15.74;100.00
8581;BME280;4328;48.622;9.230;2023-05-07T20:22:21;98200.44;;;15.75;100.00
8581;BME280;4328;48.622;9.230;2023-05-07T20:24:50;98204.84;;;15.76;100.00
8581;BME280;4328;48.622;9.230;2023-05-07T20:27:17;98207.38;;;15.71;100.00
8581;BME280;4328;48.622;9.230;2023-05-07T20:29:49;98197.50;;;15.70;100.00
8581;BME280;4328;48.622;9.230;2023-05-07T20:32:16;98202.97;;;15.70;100.00
8581;BME280;4328;48.622;9.230;2023-05-07T20:34:43;98203.59;;;15.72;100.00
8581;BME280;4328;48.622;9.230;2023-05-07T20:37:11;98210.53;;;15.75;100.00
8581;BME280;4328;48.622;9.230;2023-05-07T20:39:38;98211.38;;;15.75;100.00
8581;BME280;4328;48.622;9.230;2023-05-07T20:42:07;98215.50;;;15.84;100.00
8581;BME280;4328;48.622;9.230;2023-05-07T20:44:34;98218.09;;;15.79;100.00
8581;BME280;4328;48.622;9.230;2023-05-07T20:47:01;98219.34;;;15.77;100.00
8581;BME280;4328;48.622;9.230;2023-05-07T20:49:27;98218.16;;;15.66;100.00
8581;BME280;4328;48.622;9.230;2023-05-07T20:51:54;98218.56;;;15.63;100.00
8581;BME280;4328;48.622;9.230;2023-05-07T20:54:21;98221.94;;;15.59;100.00
8581;BME280;4328;48.622;9.230;2023-05-07T20:56:48;98223.25;;;15.56;100.00
8581;BME280;4328;48.622;9.230;2023-05-07T20:59:16;98223.63;;;15.60;100.00
8581;BME280;4328;48.622;9.230;2023-05-07T21:01:42;98231.19;;;15.64;100.00
8581;BME280;4328;48.622;9.230;2023-05-07T21:04:09;98231.59;;;15.68;100.00
8581;BME280;4328;48.622;9.230;2023-05-07T21:06:36;98230.09;;;15.72;100.00
8581;BME280;4328;48.622;9.230;2023-05-07T21:09:02;98220.47;;;15.63;100.00
8581;BME280;4328;48.622;9.230;2023-05-07T21:11:29;98233.28;;;15.69;100.00
8581;BME280;4328;48.622;9.230;2023-05-07T21:13:56;98233.88;;;15.71;100.00
8581;BME280;4328;48.622;9.230;2023-05-07T21:16:24;98234.72;;;15.71;100.00
8581;BME280;4328;48.622;9.230;2023-05-07T21:18:51;98229.28;;;15.65;100.00
8581;BME280;4328;48.622;9.230;2023-05-07T21:21:17;98227.81;;;15.62;100.00
8581;BME280;4328;48.622;9.230;2023-05-07T21:23:44;98229.28;;;15.65;100.00
8581;BME280;4328;48.622;9.230;2023-05-07T21:26:16;98232.88;;;15.65;100.00
8581;BME280;4328;48.622;9.230;2023-05-07T21:28:43;98223.63;;;15.60;100.00
8581;BME280;4328;48.622;9.230;2023-05-07T21:31:10;98223.63;;;15.53;100.00
8581;BME280;4328;48.622;9.230;2023-05-07T21:33:38;98197.63;;;15.44;100.00
8581;BME280;4328;48.622;9.230;2023-05-07T21:36:05;98226.16;;;15.61;100.00
8581;BME280;4328;48.622;9.230;2023-05-07T21:38:32;98226.56;;;15.58;100.00
8581;BME280;4328;48.622;9.230;2023-05-07T21:40:59;98225.75;;;15.58;100.00
8581;BME280;4328;48.622;9.230;2023-05-07T21:43:25;98222.78;;;15.52;100.00
8581;BME280;4328;48.622;9.230;2023-05-07T21:45:52;98221.56;;;15.55;100.00
8581;BME280;4328;48.622;9.230;2023-05-07T21:48:19;98230.97;;;15.66;100.00
8581;BME280;4328;48.622;9.230;2023-05-07T21:50:47;98235.59;;;15.65;100.00
8581;BME280;4328;48.622;9.230;2023-05-07T21:53:14;98231.19;;;15.64;100.00
8581;BME280;4328;48.622;9.230;2023-05-07T21:55:41;98230.13;;;15.65;100.00
8581;BME280;4328;48.622;9.230;2023-05-07T21:58:07;98220.28;;;15.58;100.00
8581;BME280;4328;48.622;9.230;2023-05-07T22:00:34;98226.16;;;15.61;100.00
8581;BME280;4328;48.622;9.230;2023-05-07T22:03:01;98237.28;;;15.60;100.00
8581;BME280;4328;48.622;9.230;2023-05-07T22:05:27;98213.13;;;15.50;100.00
8581;BME280;4328;48.622;9.230;2023-05-07T22:07:55;98227.22;;;15.53;100.00
8581;BME280;4328;48.622;9.230;2023-05-07T22:10:22;98227.03;;;15.55;100.00
8581;BME280;4328;48.622;9.230;2023-05-07T22:12:48;98201.63;;;15.35;100.00
8581;BME280;4328;48.622;9.230;2023-05-07T22:15:15;98220.28;;;15.51;100.00
8581;BME280;4328;48.622;9.230;2023-05-07T22:17:42;98232.50;;;15.55;100.00
8581;BME280;4328;48.622;9.230;2023-05-07T22:20:09;98228.72;;;15.56;100.00
8581;BME280;4328;48.622;9.230;2023-05-07T22:22:44;98228.25;;;15.59;100.00
8581;BME280;4328;48.622;9.230;2023-05-07T22:25:14;98212.91;;;15.51;100.00
8581;BME280;4328;48.622;9.230;2023-05-07T22:27:40;98229.75;;;15.55;100.00
8581;BME280;4328;48.622;9.230;2023-05-07T22:30:10;98225.31;;;15.54;100.00
8581;BME280;4328;48.622;9.230;2023-05-07T22:32:37;98215.66;;;15.51;100.00
8581;BME280;4328;48.622;9.230;2023-05-07T22:35:05;98227.03;;;15.55;100.00
8581;BME280;4328;48.622;9.230;2023-05-07T22:37:32;98226.81;;;15.57;100.00
8581;BME280;4328;48.622;9.230;2023-05-07T22:39:58;98215.84;;;15.50;100.00
8581;BME280;4328;48.622;9.230;2023-05-07T22:42:26;98225.75;;;15.51;100.00
8581;BME280;4328;48.622;9.230;2023-05-07T22:44:54;98229.09;;;15.46;100.00
8581;BME280;4328;48.622;9.230;2023-05-07T22:47:21;98223.47;;;15.41;100.00
8581;BME280;4328;48.622;9.230;2023-05-07T22:49:47;98231.66;;;15.41;100.00
8581;BME280;4328;48.622;9.230;2023-05-07T22:52:14;98226.19;;;15.41;100.00
8581;BME280;4328;48.622;9.230;2023-05-07T22:54:41;98228.72;;;15.43;100.00
8581;BME280;4328;48.622;9.230;2023-05-07T22:57:08;98227.66;;;15.44;100.00
8581;BME280;4328;48.622;9.230;2023-05-07T22:59:36;98224.94;;;15.37;100.00
8581;BME280;4328;48.622;9.230;2023-05-07T23:02:02;98232.50;;;15.42;100.00
8581;BME280;4328;48.622;9.230;2023-05-07T23:04:29;98234.81;;;15.38;100.00
8581;BME280;4328;48.622;9.230;2023-05-07T23:06:56;98229.16;;;15.40;100.00
8581;BME280;4328;48.622;9.230;2023-05-07T23:09:23;98232.09;;;15.38;100.00
8581;BME280;4328;48.622;9.230;2023-05-07T23:11:50;98235.25;;;15.42;100.00
8581;BME280;4328;48.622;9.230;2023-05-07T23:14:17;64081.09;;;-143.67;100.00
8581;BME280;4328;48.622;9.230;2023-05-07T23:16:45;64081.09;;;-143.67;100.00
8581;BME280;4328;48.622;9.230;2023-05-07T23:19:12;64081.09;;;-143.67;100.00
8581;BME280;4328;48.622;9.230;2023-05-07T23:21:38;64081.09;;;-143.67;100.00
8581;BME280;4328;48.622;9.230;2023-05-07T23:24:06;64081.09;;;-143.67;100.00
8581;BME280;4328;48.622;9.230;2023-05-07T23:26:32;64081.09;;;-143.67;100.00
8581;BME280;4328;48.622;9.230;2023-05-07T23:28:59;64081.09;;;-143.67;100.00
8581;BME280;4328;48.622;9.230;2023-05-07T23:31:26;64081.09;;;-143.67;100.00
8581;BME280;4328;48.622;9.230;2023-05-07T23:33:54;64081.09;;;-143.67;100.00
8581;BME280;4328;48.622;9.230;2023-05-07T23:36:20;64081.09;;;-143.67;100.00
8581;BME280;4328;48.622;9.230;2023-05-07T23:38:47;64081.09;;;-143.67;100.00
8581;BME280;4328;48.622;9.230;2023-05-07T23:41:14;64081.09;;;-143.67;100.00
8581;BME280;4328;48.622;9.230;2023-05-07T23:43:41;64081.09;;;-143.67;100.00
8581;BME280;4328;48.622;9.230;2023-05-07T23:46:07;64081.09;;;-143.67;100.00
8581;BME280;4328;48.622;9.230;2023-05-07T23:48:34;64081.09;;;-143.67;100.00
8581;BME280;4328;48.622;9.230;2023-05-07T23:51:02;64081.09;;;-143.67;100.00
8581;BME280;4328;48.622;9.230;2023-05-07T23:53:28;64081.09;;;-143.67;100.00
8581;BME280;4328;48.622;9.230;2023-05-07T23:55:55;64081.09;;;-143.67;100.00
8581;BME280;4328;48.622;9.230;2023-05-07T23:58:22;64081.09;;;-143.67;100.00
